createdAt,value
2023-10-21T00:04:59.528Z,54.90
2023-10-21T00:10:02.253Z,55.00
2023-10-21T00:15:08.114Z,54.80
2023-10-21T00:20:11.499Z,54.90
2023-10-21T00:25:13.999Z,54.80
2023-10-21T00:30:16.508Z,55.10
2023-10-21T00:35:18.971Z,54.90
2023-10-21T00:40:21.842Z,55.10
2023-10-21T00:45:24.589Z,54.90
2023-10-21T00:50:27.458Z,55.20
2023-10-21T00:55:30.044Z,55.10
2023-10-21T01:00:32.691Z,55.10
2023-10-21T01:05:35.202Z,55.10
2023-10-21T01:10:37.762Z,55.20
2023-10-21T01:15:40.304Z,55.50
2023-10-21T01:20:42.903Z,55.40
2023-10-21T01:25:45.879Z,55.40
2023-10-21T01:30:49.115Z,55.20
2023-10-21T01:35:52.182Z,55.30
2023-10-21T01:40:54.881Z,55.40
2023-10-21T01:45:57.397Z,55.40
2023-10-21T01:51:02.587Z,56.00
2023-10-21T01:56:05.396Z,55.60
2023-10-21T02:01:12.570Z,55.70
2023-10-21T02:06:15.518Z,55.60
2023-10-21T02:11:23.235Z,55.50
2023-10-21T02:16:25.862Z,55.40
2023-10-21T02:21:28.758Z,55.50
2023-10-21T02:26:31.889Z,55.50
2023-10-21T02:31:35.036Z,55.30
2023-10-21T02:36:37.673Z,55.50
2023-10-21T02:41:40.306Z,55.40
2023-10-21T02:46:42.771Z,55.50
2023-10-21T02:51:45.737Z,55.30
2023-10-21T02:56:48.358Z,55.30
2023-10-21T03:01:51.145Z,55.30
2023-10-21T03:06:55.907Z,55.20
2023-10-21T03:11:58.964Z,55.50
2023-10-21T03:17:01.619Z,56.00
2023-10-21T03:22:04.888Z,55.20
2023-10-21T03:27:07.444Z,55.30
2023-10-21T03:32:11.085Z,55.60
2023-10-21T03:37:13.607Z,55.50
2023-10-21T03:42:16.501Z,55.50
2023-10-21T03:47:18.971Z,55.60
2023-10-21T03:52:21.482Z,55.60
2023-10-21T03:57:24.114Z,55.60
2023-10-21T04:02:26.895Z,55.70
2023-10-21T04:07:29.488Z,55.60
2023-10-21T04:12:32.200Z,56.00
2023-10-21T04:17:35.117Z,55.70
2023-10-21T04:22:37.675Z,55.70
2023-10-21T04:27:40.283Z,55.80
2023-10-21T04:32:42.812Z,56.00
2023-10-21T04:37:45.481Z,55.90
2023-10-21T04:42:48.574Z,55.80
2023-10-21T04:47:52.409Z,55.70
2023-10-21T04:52:55.195Z,55.60
2023-10-21T04:57:58.994Z,55.50
2023-10-21T05:03:01.667Z,55.50
2023-10-21T05:08:04.824Z,55.80
2023-10-21T05:13:07.371Z,56.00
2023-10-21T05:18:10.036Z,55.90
2023-10-21T05:23:12.968Z,55.70
2023-10-21T05:28:15.747Z,56.00
2023-10-21T05:33:18.629Z,55.90
2023-10-21T05:38:21.156Z,55.70
2023-10-21T05:43:23.783Z,55.60
2023-10-21T05:48:26.594Z,55.50
2023-10-21T05:53:30.209Z,56.00
2023-10-21T05:58:34.897Z,56.10
2023-10-21T06:03:38.082Z,55.30
2023-10-21T06:08:41.023Z,56.20
2023-10-21T06:13:43.541Z,56.70
2023-10-21T06:18:46.408Z,56.40
2023-10-21T06:23:48.999Z,56.40
2023-10-21T06:28:51.479Z,55.70
2023-10-21T06:33:55.280Z,54.20
2023-10-21T06:38:58.793Z,53.80
2023-10-21T06:44:02.203Z,52.00
2023-10-21T06:49:05.119Z,51.20
2023-10-21T06:54:07.947Z,50.50
2023-10-21T06:59:10.805Z,48.40
2023-10-21T07:04:15.213Z,48.90
2023-10-21T07:09:17.779Z,47.80
2023-10-21T07:14:20.277Z,47.20
2023-10-21T07:19:23.210Z,46.90
2023-10-21T07:24:25.932Z,46.70
2023-10-21T07:29:28.763Z,45.50
2023-10-21T07:34:31.273Z,44.70
2023-10-21T07:39:34.017Z,44.20
2023-10-21T07:44:36.774Z,44.00
2023-10-21T07:49:39.526Z,43.40
2023-10-21T07:54:42.188Z,43.20
2023-10-21T07:59:45.434Z,42.70
2023-10-21T08:04:48.333Z,42.10
2023-10-21T08:09:53.393Z,41.40
2023-10-21T08:14:57.249Z,40.40
2023-10-21T08:19:59.904Z,40.50
2023-10-21T08:25:02.588Z,41.30
2023-10-21T08:30:07.317Z,40.40
2023-10-21T08:35:09.913Z,39.60
2023-10-21T08:40:12.975Z,39.50
2023-10-21T08:45:17.956Z,38.50
2023-10-21T08:50:21.436Z,38.30
2023-10-21T08:55:25.506Z,38.40
2023-10-21T09:00:28.814Z,38.20
2023-10-21T09:05:32.402Z,36.10
2023-10-21T09:10:36.479Z,35.10
2023-10-21T09:15:39.411Z,35.40
2023-10-21T09:20:49.336Z,36.40
2023-10-21T09:25:53.345Z,35.80
2023-10-21T09:30:59.084Z,36.10
2023-10-21T09:36:19.109Z,36.00
2023-10-21T09:41:25.686Z,36.40
2023-10-21T09:46:29.732Z,36.70
2023-10-21T09:51:38.365Z,36.70
2023-10-21T09:56:41.780Z,37.00
2023-10-21T10:01:45.928Z,37.10
2023-10-21T10:07:05.189Z,37.20
2023-10-21T10:12:13.290Z,37.00
2023-10-21T10:17:51.376Z,37.40
2023-10-21T10:28:32.515Z,37.10
2023-10-21T10:33:36.719Z,37.50
2023-10-21T10:38:47.023Z,37.50
2023-10-21T10:43:57.124Z,37.40
2023-10-21T10:49:06.655Z,37.50
2023-10-21T10:54:13.543Z,37.80
2023-10-21T10:59:18.656Z,37.50
2023-10-21T11:04:21.590Z,37.60
2023-10-21T11:09:32.300Z,37.50
2023-10-21T11:14:35.163Z,37.30
2023-10-21T11:19:37.907Z,37.50
2023-10-21T11:24:40.777Z,37.60
2023-10-21T11:29:44.405Z,37.30
2023-10-21T11:34:46.985Z,37.30
2023-10-21T11:39:50.245Z,37.60
2023-10-21T11:45:02.523Z,37.60
2023-10-21T11:50:10.244Z,38.20
2023-10-21T12:00:47.708Z,38.00
2023-10-21T12:06:10.139Z,37.40
2023-10-21T12:11:32.496Z,37.20
2023-10-21T12:17:01.079Z,37.20
2023-10-21T12:27:41.044Z,37.00
2023-10-21T12:33:03.568Z,36.90
2023-10-21T12:43:25.613Z,37.80
2023-10-21T12:48:28.512Z,37.70
2023-10-21T12:53:31.418Z,38.00
2023-10-21T12:58:34.742Z,37.90
2023-10-21T13:03:38.912Z,37.90
2023-10-21T13:08:41.492Z,37.20
2023-10-21T13:13:43.978Z,38.40
2023-10-21T13:18:46.483Z,37.90
2023-10-21T13:23:49.090Z,37.90
2023-10-21T13:28:52.612Z,37.90
2023-10-21T13:33:55.293Z,39.80
2023-10-21T13:38:57.873Z,39.30
2023-10-21T13:44:00.569Z,39.00
2023-10-21T13:49:06.677Z,38.60
2023-10-21T13:54:11.216Z,38.80
2023-10-21T13:59:14.808Z,38.60
2023-10-21T14:04:18.522Z,37.80
2023-10-21T14:09:24.907Z,38.50
2023-10-21T14:14:27.610Z,38.00
2023-10-21T14:19:30.182Z,37.70
2023-10-21T14:24:32.784Z,37.80
2023-10-21T14:29:37.960Z,37.60
2023-10-21T14:34:41.355Z,37.90
2023-10-21T14:39:43.918Z,37.50
2023-10-21T14:44:47.044Z,37.40
2023-10-21T14:49:49.576Z,37.50
2023-10-21T14:54:53.032Z,37.50
2023-10-21T14:59:55.986Z,37.50
2023-10-21T15:04:58.746Z,37.40
2023-10-21T15:10:01.411Z,37.70
2023-10-21T15:15:05.984Z,37.80
2023-10-21T15:20:10.296Z,37.70
2023-10-21T15:25:17.145Z,37.70
2023-10-21T15:30:22.421Z,37.90
2023-10-21T15:35:26.595Z,38.50
2023-10-21T15:40:31.804Z,38.50
2023-10-21T15:45:34.453Z,38.80
2023-10-21T15:50:37.342Z,38.40
2023-10-21T15:55:40.097Z,38.60
2023-10-21T16:00:42.858Z,38.60
2023-10-21T16:05:45.428Z,38.70
2023-10-21T16:10:49.071Z,38.70
2023-10-21T16:16:00.234Z,38.20
2023-10-21T16:21:03.069Z,38.90
2023-10-21T16:26:06.695Z,38.90
2023-10-21T16:31:09.157Z,39.00
2023-10-21T16:36:11.859Z,39.30
2023-10-21T16:41:14.585Z,39.50
2023-10-21T16:46:17.790Z,39.50
2023-10-21T16:51:20.374Z,39.70
2023-10-21T16:56:22.961Z,39.70
2023-10-21T17:01:25.731Z,39.80
2023-10-21T17:06:32.009Z,40.00
2023-10-21T17:11:34.582Z,40.70
2023-10-21T17:16:37.487Z,40.60
2023-10-21T17:21:40.141Z,40.50
2023-10-21T17:26:42.892Z,40.30
2023-10-21T17:31:45.527Z,40.30
2023-10-21T17:36:48.447Z,40.40
2023-10-21T17:41:51.088Z,40.70
2023-10-21T17:46:53.585Z,40.80
2023-10-21T17:51:58.535Z,40.90
2023-10-21T17:57:01.296Z,41.00
2023-10-21T18:02:05.157Z,41.20
2023-10-21T18:07:08.148Z,41.20
2023-10-21T18:12:11.005Z,41.20
2023-10-21T18:17:13.733Z,41.10
2023-10-21T18:22:16.451Z,41.30
2023-10-21T18:27:20.290Z,41.40
2023-10-21T18:32:24.286Z,41.00
2023-10-21T18:37:27.034Z,41.10
2023-10-21T18:42:29.638Z,41.90
2023-10-21T18:47:32.372Z,41.50
2023-10-21T18:52:34.907Z,41.60
2023-10-21T18:57:37.872Z,41.70
2023-10-21T19:02:40.794Z,41.70
2023-10-21T19:07:43.710Z,41.80
2023-10-21T19:12:46.418Z,42.00
2023-10-21T19:17:49.014Z,42.20
2023-10-21T19:22:51.503Z,42.30
2023-10-21T19:27:54.202Z,42.50
2023-10-21T19:32:56.820Z,43.00
2023-10-21T19:37:59.435Z,43.10
2023-10-21T19:43:02.088Z,43.10
2023-10-21T19:48:05.105Z,43.10
2023-10-21T19:53:07.770Z,43.20
2023-10-21T19:58:10.441Z,43.40
2023-10-21T20:03:13.109Z,43.60
2023-10-21T20:08:15.975Z,43.60
2023-10-21T20:13:20.329Z,43.60
2023-10-21T20:18:24.460Z,43.80
2023-10-21T20:23:27.059Z,43.80
2023-10-21T20:28:29.602Z,44.00
2023-10-21T20:33:33.172Z,44.00
2023-10-21T20:38:37.277Z,44.10
2023-10-21T20:43:42.256Z,44.20
2023-10-21T20:48:44.761Z,44.40
2023-10-21T20:53:47.410Z,44.40
2023-10-21T20:58:50.575Z,44.60
2023-10-21T21:03:53.484Z,44.60
2023-10-21T21:08:56.151Z,44.70
2023-10-21T21:14:00.432Z,44.90
2023-10-21T21:19:03.909Z,44.90
2023-10-21T21:24:07.386Z,45.00
2023-10-21T21:29:10.593Z,44.90
2023-10-21T21:34:12.986Z,45.00
2023-10-21T21:39:15.814Z,45.00
2023-10-21T21:44:18.307Z,45.20
2023-10-21T21:49:20.826Z,45.20
2023-10-21T21:54:24.401Z,45.20
2023-10-21T21:59:27.088Z,45.30
2023-10-21T22:04:31.480Z,45.30
2023-10-21T22:09:34.142Z,45.50
2023-10-21T22:14:36.833Z,45.50
2023-10-21T22:19:39.836Z,45.50
2023-10-21T22:24:43.351Z,45.50
2023-10-21T22:29:46.577Z,45.50
2023-10-21T22:34:49.167Z,45.70
2023-10-21T22:39:51.692Z,45.80
2023-10-21T22:44:54.535Z,45.80
2023-10-21T22:49:57.071Z,45.90
2023-10-21T22:54:59.729Z,45.90
2023-10-21T23:00:05.277Z,45.90
2023-10-21T23:05:09.254Z,45.90
2023-10-21T23:10:17.591Z,45.90
2023-10-21T23:15:22.178Z,46.10
2023-10-21T23:20:24.728Z,46.10
2023-10-21T23:25:27.287Z,46.00
2023-10-21T23:30:30.835Z,46.10
2023-10-21T23:35:33.473Z,46.10
2023-10-21T23:40:40.833Z,46.40
2023-10-21T23:45:43.396Z,46.50
2023-10-21T23:50:46.018Z,46.50
2023-10-21T23:55:48.532Z,46.50
